Time;durP1;ratioP1;P1;durP2;ratioP2;P2;SDS_P1;SDS_P2;PMS_P1;PMS_P2;Temp;Humidity;BMP_temperature;BMP_pressure;BME280_temperature;BME280_humidity;BME280_pressure;Samples;Min_cycle;Max_cycle;Signal;HPM_P1;HPM_P2
2021/08/10 00:02:23;;;;;;;10.00;8.87;;;;;;;16.15;75.84;101206.97;5058218;28;20279;-70
2021/08/10 00:04:49;;;;;;;10.83;8.70;;;;;;;16.95;72.87;101201.16;5057185;28;20174;-70
2021/08/10 00:07:15;;;;;;;10.87;8.93;;;;;;;17.10;72.03;101194.84;5039875;28;20911;-69
2021/08/10 00:09:41;;;;;;;10.70;8.47;;;;;;;17.08;71.82;101191.34;5059518;28;20200;-69
2021/08/10 00:12:06;;;;;;;12.73;8.70;;;;;;;17.36;71.19;101195.44;5072524;28;20435;-69
2021/08/10 00:14:31;;;;;;;12.93;9.20;;;;;;;16.79;73.23;101188.94;5077660;28;20188;-69
2021/08/10 00:16:57;;;;;;;9.07;8.17;;;;;;;17.17;71.85;101185.13;5068903;28;20255;-69
2021/08/10 00:19:22;;;;;;;10.53;9.00;;;;;;;17.16;72.01;101186.00;5059372;28;20189;-69
2021/08/10 00:21:47;;;;;;;10.53;8.67;;;;;;;17.27;71.32;101178.00;5057936;28;20170;-69
2021/08/10 00:24:13;;;;;;;10.20;8.07;;;;;;;17.45;70.21;101175.13;5059310;28;20229;-69
2021/08/10 00:26:38;;;;;;;11.47;9.40;;;;;;;17.39;70.61;101167.31;5057637;28;20169;-69
2021/08/10 00:29:04;;;;;;;11.33;8.50;;;;;;;17.50;70.16;101181.22;5057609;28;20559;-68
2021/08/10 00:31:29;;;;;;;10.27;8.90;;;;;;;17.91;69.19;101178.06;5071105;28;20240;-69
2021/08/10 00:33:56;;;;;;;10.20;8.27;;;;;;;17.30;71.21;101175.31;5074303;28;20181;-70
2021/08/10 00:36:22;;;;;;;10.07;9.07;;;;;;;17.41;70.34;101183.94;5057964;28;20469;-69
2021/08/10 00:38:48;;;;;;;10.13;8.50;;;;;;;17.50;70.59;101177.72;5057559;28;20397;-69
2021/08/10 00:41:13;;;;;;;10.17;8.67;;;;;;;17.34;71.13;101182.28;5057111;28;20534;-70
2021/08/10 00:43:40;;;;;;;11.87;9.47;;;;;;;17.27;71.64;101175.34;5058240;28;20174;-69
2021/08/10 00:46:08;;;;;;;10.67;9.20;;;;;;;17.35;71.10;101181.41;5059074;28;20177;-69
2021/08/10 00:48:34;;;;;;;12.90;9.20;;;;;;;17.66;70.14;101181.91;5056806;28;20474;-69
2021/08/10 00:51:00;;;;;;;17.90;13.53;;;;;;;17.33;71.51;101172.63;5060062;28;20477;-69
2021/08/10 00:53:25;;;;;;;14.57;9.60;;;;;;;17.27;71.67;101175.34;5060635;28;20415;-70
2021/08/10 00:55:51;;;;;;;10.60;9.50;;;;;;;17.36;71.40;101183.16;5070222;28;20473;-69
2021/08/10 00:58:17;;;;;;;11.37;10.00;;;;;;;17.13;72.27;101184.28;5061356;28;20173;-69
2021/08/10 01:00:42;;;;;;;10.23;8.80;;;;;;;17.28;71.41;101174.47;5074035;28;20234;-69
2021/08/10 01:03:07;;;;;;;9.30;7.37;;;;;;;17.26;70.04;101182.38;5062747;28;20645;-70
2021/08/10 01:05:34;;;;;;;9.60;8.70;;;;;;;17.18;71.38;101173.69;5062893;28;20513;-70
2021/08/10 01:08:10;;;;;;;9.40;7.80;;;;;;;17.39;70.57;101183.13;5060963;28;20205;-70
2021/08/10 01:10:41;;;;;;;9.83;7.80;;;;;;;17.08;71.05;101175.53;5064149;28;20488;-69
2021/08/10 01:13:28;;;;;;;9.70;7.50;;;;;;;16.90;72.20;101175.72;5080230;28;20382;-69
2021/08/10 01:16:01;;;;;;;9.17;8.30;;;;;;;17.48;69.79;101175.09;5078252;28;20518;-68
2021/08/10 01:18:38;;;;;;;12.90;9.10;;;;;;;16.97;71.23;101172.16;5061701;28;20443;-69
2021/08/10 01:21:12;;;;;;;8.20;7.50;;;;;;;16.60;72.15;101182.97;5059442;28;20695;-69
2021/08/10 01:23:37;;;;;;;7.37;6.13;;;;;;;16.69;72.29;101171.50;5060344;28;20445;-68
2021/08/10 01:26:30;;;;;;;6.93;6.33;;;;;;;16.67;71.43;101172.38;5061441;28;20421;-70
2021/08/10 01:29:13;;;;;;;7.70;6.67;;;;;;;16.95;71.48;101172.19;5070593;28;20596;-70
2021/08/10 01:31:40;;;;;;;6.90;6.20;;;;;;;17.01;70.78;101168.59;5100333;28;20514;-70
2021/08/10 01:34:15;;;;;;;7.77;7.13;;;;;;;16.65;71.78;101170.66;5096818;28;20719;-69
2021/08/10 01:36:41;;;;;;;7.23;6.50;;;;;;;16.91;71.35;101169.56;5079522;28;20464;-70
2021/08/10 01:39:07;;;;;;;7.93;7.13;;;;;;;16.68;72.57;101167.97;5080020;28;20394;-69
2021/08/10 01:41:33;;;;;;;7.53;6.83;;;;;;;16.69;71.57;101160.97;5080447;28;20665;-70
2021/08/10 01:43:59;;;;;;;8.60;7.73;;;;;;;16.91;70.63;101161.66;5079193;28;20282;-70
2021/08/10 01:46:26;;;;;;;7.80;7.00;;;;;;;16.61;71.61;101163.66;5079788;28;20180;-69
2021/08/10 01:48:52;;;;;;;7.40;6.70;;;;;;;16.58;71.97;101166.34;5079364;28;20827;-69
2021/08/10 01:51:21;;;;;;;8.50;7.70;;;;;;;16.60;71.28;101170.69;5080006;28;20593;-70
2021/08/10 01:53:47;;;;;;;7.80;7.10;;;;;;;16.28;73.22;101160.44;5078797;28;20410;-69
2021/08/10 01:56:12;;;;;;;7.97;7.17;;;;;;;16.40;72.68;101162.97;5079281;28;20431;-69
2021/08/10 01:58:38;;;;;;;8.57;6.67;;;;;;;16.59;71.65;101165.44;5079108;28;20180;-70
2021/08/10 02:01:03;;;;;;;7.70;7.00;;;;;;;16.58;71.73;101171.59;5080096;28;20165;-69
2021/08/10 02:03:29;;;;;;;8.63;6.90;;;;;;;16.44;72.93;101166.44;5078386;28;20181;-69
2021/08/10 02:05:55;;;;;;;7.57;6.87;;;;;;;16.67;70.98;101163.63;5076793;28;20246;-68
2021/08/10 02:08:22;;;;;;;10.90;7.20;;;;;;;16.72;70.39;101160.94;5084692;28;20815;-69
2021/08/10 02:10:48;;;;;;;8.33;7.53;;;;;;;16.40;71.91;101160.34;5061860;28;20442;-68
2021/08/10 02:13:14;;;;;;;11.27;7.30;;;;;;;16.56;71.61;101158.47;5058803;28;20432;-68
2021/08/10 02:15:41;;;;;;;8.47;7.67;;;;;;;16.95;70.03;101166.91;5059557;28;20173;-68
2021/08/10 02:18:06;;;;;;;8.00;7.30;;;;;;;16.72;71.91;101161.81;5058712;28;20489;-68
2021/08/10 02:20:31;;;;;;;10.83;8.60;;;;;;;16.96;70.29;101170.41;5074002;28;20466;-68
2021/08/10 02:22:58;;;;;;;9.60;8.17;;;;;;;16.75;71.10;101171.44;5078683;28;20221;-69
2021/08/10 02:25:25;;;;;;;9.53;8.20;;;;;;;16.95;70.41;101164.28;5079311;28;20173;-68
2021/08/10 02:27:56;;;;;;;9.37;8.47;;;;;;;17.00;70.22;101167.72;5060933;28;20411;-70
2021/08/10 02:30:25;;;;;;;9.03;8.23;;;;;;;16.76;71.00;101170.56;5059232;28;20685;-70
2021/08/10 02:32:52;;;;;;;9.77;8.07;;;;;;;16.76;70.98;101174.06;5059550;28;20748;-70
2021/08/10 02:35:24;;;;;;;9.03;8.10;;;;;;;16.87;70.73;101173.09;5058802;28;20491;-70
2021/08/10 02:37:49;;;;;;;10.27;7.40;;;;;;;16.55;71.62;101169.88;5058384;28;20934;-70
2021/08/10 02:40:17;;;;;;;8.10;7.40;;;;;;;16.95;70.35;101159.00;5058597;28;20514;-70
2021/08/10 02:42:44;;;;;;;7.90;7.20;;;;;;;16.90;70.31;101155.53;5059265;28;20162;-69
2021/08/10 02:45:10;;;;;;;8.17;6.73;;;;;;;16.95;69.82;101161.63;5058796;28;20440;-69
2021/08/10 02:47:36;;;;;;;9.10;6.70;;;;;;;16.92;69.59;101152.88;5059039;28;20398;-69
2021/08/10 02:50:04;;;;;;;9.10;6.90;;;;;;;16.74;70.35;101157.41;5059210;28;20478;-70
2021/08/10 02:52:29;;;;;;;8.37;6.83;;;;;;;16.74;70.46;101156.56;5058232;28;20511;-70
2021/08/10 02:54:54;;;;;;;6.60;6.00;;;;;;;16.45;71.42;101160.28;5058539;28;20462;-69
2021/08/10 02:57:31;;;;;;;6.40;5.80;;;;;;;16.68;70.44;101154.81;5059332;28;20165;-69
2021/08/10 03:00:06;;;;;;;6.70;6.00;;;;;;;16.89;70.01;101158.16;5058080;28;20311;-68
2021/08/10 03:02:35;;;;;;;8.30;6.20;;;;;;;17.15;68.96;101150.88;5058692;28;20406;-70
2021/08/10 03:05:07;;;;;;;8.10;6.37;;;;;;;16.99;69.28;101160.72;5058586;28;20416;-69
2021/08/10 03:07:33;;;;;;;9.80;6.90;;;;;;;17.05;69.82;101159.78;5058299;28;20443;-70
2021/08/10 03:10:00;;;;;;;7.43;6.70;;;;;;;16.90;70.31;101152.00;5058401;28;20826;-70
2021/08/10 03:12:28;;;;;;;6.73;6.13;;;;;;;16.84;70.78;101159.09;5057881;28;20391;-70
2021/08/10 03:14:54;;;;;;;7.27;6.40;;;;;;;17.06;69.86;101160.63;5057316;28;20387;-69
2021/08/10 03:17:22;;;;;;;7.60;6.77;;;;;;;17.07;69.78;101157.13;5058585;28;20424;-69
2021/08/10 03:19:48;;;;;;;7.70;7.00;;;;;;;17.13;69.93;101151.78;5057735;28;20397;-68
2021/08/10 03:22:14;;;;;;;7.80;7.00;;;;;;;17.20;69.85;101142.03;5058451;28;20681;-71
2021/08/10 03:24:40;;;;;;;6.80;6.20;;;;;;;16.77;71.60;101153.88;5058099;28;20222;-70
2021/08/10 03:27:07;;;;;;;7.00;6.40;;;;;;;17.07;70.86;101152.72;5057623;28;20445;-69
2021/08/10 03:29:36;;;;;;;8.83;6.83;;;;;;;17.23;70.29;101157.84;5058106;28;20693;-69
2021/08/10 03:32:02;;;;;;;7.63;6.37;;;;;;;17.21;70.06;101146.44;5072731;28;20431;-69
2021/08/10 03:34:28;;;;;;;7.43;6.73;;;;;;;16.60;72.83;101147.00;5077487;28;20418;-69
2021/08/10 03:36:54;;;;;;;7.87;7.00;;;;;;;16.99;71.04;101146.66;5078163;28;20435;-69
2021/08/10 03:39:20;;;;;;;8.80;6.77;;;;;;;17.05;70.78;101138.72;5077428;28;20203;-69
2021/08/10 03:41:46;;;;;;;8.40;6.97;;;;;;;17.06;70.80;101143.09;5078186;28;20169;-70
2021/08/10 03:44:13;;;;;;;8.07;7.23;;;;;;;17.23;70.14;101139.38;5077673;28;20446;-70
2021/08/10 03:46:38;;;;;;;7.80;6.40;;;;;;;17.32;69.78;101149.81;5064432;28;20478;-69
2021/08/10 03:49:03;;;;;;;8.43;6.83;;;;;;;17.02;70.96;101148.38;5058821;28;20387;-69
2021/08/10 03:51:30;;;;;;;7.97;7.17;;;;;;;16.10;73.40;101150.88;5077663;28;20228;-69
2021/08/10 03:53:55;;;;;;;7.97;7.20;;;;;;;16.76;71.45;101145.09;5078079;28;20179;-69
2021/08/10 03:56:25;;;;;;;8.60;6.17;;;;;;;16.91;71.24;101146.72;5078177;28;20688;-69
2021/08/10 03:58:52;;;;;;;7.57;6.87;;;;;;;16.55;72.78;101147.91;5077938;28;20527;-69
2021/08/10 04:01:18;;;;;;;6.93;6.17;;;;;;;16.83;71.95;101149.44;5067178;28;20697;-69
2021/08/10 04:03:44;;;;;;;7.13;6.20;;;;;;;17.02;70.82;101148.38;5040500;28;20420;-69
2021/08/10 04:06:11;;;;;;;8.37;7.33;;;;;;;16.71;72.15;101156.56;5057604;28;20512;-69
2021/08/10 04:08:37;;;;;;;7.10;6.47;;;;;;;17.32;69.70;101155.09;5056955;28;20440;-70
2021/08/10 04:11:02;;;;;;;8.97;6.63;;;;;;;16.64;71.33;101156.63;5057065;28;20434;-69
2021/08/10 04:13:32;;;;;;;6.97;6.27;;;;;;;16.80;71.31;101162.59;5057548;28;20201;-69
2021/08/10 04:16:01;;;;;;;9.03;6.20;;;;;;;17.10;70.29;101165.88;5057262;28;20498;-69
2021/08/10 04:18:28;;;;;;;6.90;6.30;;;;;;;17.16;69.88;101157.88;5057381;28;20469;-70
2021/08/10 04:20:53;;;;;;;9.60;6.20;;;;;;;17.24;69.40;101162.19;5057679;28;20494;-70
2021/08/10 04:23:19;;;;;;;7.00;6.30;;;;;;;17.09;70.81;101173.78;5057401;28;20900;-69
2021/08/10 04:25:44;;;;;;;7.07;6.03;;;;;;;17.38;69.27;101169.97;5060151;28;20406;-69
2021/08/10 04:28:10;;;;;;;6.67;6.03;;;;;;;17.29;69.25;101166.53;5061623;28;20248;-69
2021/08/10 04:30:37;;;;;;;6.73;6.13;;;;;;;17.12;70.04;101164.09;5061684;28;20303;-70
2021/08/10 04:33:03;;;;;;;8.10;7.30;;;;;;;17.40;69.52;101161.16;5062034;28;20173;-70
2021/08/10 04:35:28;;;;;;;7.40;6.43;;;;;;;17.68;68.22;101164.31;5060934;28;20420;-70
2021/08/10 04:37:53;;;;;;;7.50;6.70;;;;;;;17.66;68.35;101152.91;5061606;28;20296;-69
2021/08/10 04:40:18;;;;;;;7.80;7.07;;;;;;;16.97;70.21;101161.63;5061751;28;20434;-70
2021/08/10 04:42:44;;;;;;;7.50;6.43;;;;;;;17.61;69.12;101167.03;5061259;28;20491;-69
2021/08/10 04:45:10;;;;;;;7.00;6.40;;;;;;;17.90;67.76;101160.50;5060406;28;20197;-69
2021/08/10 04:47:35;;;;;;;13.10;7.93;;;;;;;17.89;67.94;101164.91;5061831;28;20162;-70
2021/08/10 04:50:01;;;;;;;7.70;7.00;;;;;;;18.05;67.66;101167.34;5061423;28;20814;-70
2021/08/10 04:52:26;;;;;;;8.00;7.20;;;;;;;18.15;66.99;101156.63;5060976;28;20189;-68
2021/08/10 04:54:51;;;;;;;7.57;6.83;;;;;;;17.87;67.29;101160.53;5061320;28;20174;-69
2021/08/10 04:57:17;;;;;;;8.27;7.47;;;;;;;18.37;66.69;101158.06;5060815;28;20208;-70
2021/08/10 04:59:42;;;;;;;7.60;6.90;;;;;;;17.88;67.77;101149.09;5060800;28;20174;-73
2021/08/10 05:02:07;;;;;;;9.97;7.43;;;;;;;18.21;66.02;101149.53;5061337;28;20555;-71
2021/08/10 05:04:33;;;;;;;7.93;7.13;;;;;;;17.85;67.66;101157.94;5060660;28;20185;-71
2021/08/10 05:07:02;;;;;;;7.30;6.70;;;;;;;18.56;65.41;101166.56;5060659;28;20162;-72
2021/08/10 05:09:27;;;;;;;8.40;6.90;;;;;;;18.06;66.74;101167.31;5061351;28;20238;-70
2021/08/10 05:11:52;;;;;;;8.20;7.50;;;;;;;17.89;67.23;101161.38;5060613;28;20463;-70
2021/08/10 05:14:17;;;;;;;8.40;7.57;;;;;;;18.51;66.34;101161.38;5060605;28;20444;-70
2021/08/10 05:16:43;;;;;;;11.63;7.73;;;;;;;18.36;65.41;101159.84;5077169;28;20176;-72
2021/08/10 05:19:08;;;;;;;7.97;7.03;;;;;;;18.18;66.41;101167.16;5080743;28;20222;-69
2021/08/10 05:21:34;;;;;;;9.37;6.90;;;;;;;17.99;67.81;101165.66;5080707;28;20524;-68
2021/08/10 05:23:59;;;;;;;8.23;7.43;;;;;;;18.09;67.33;101164.66;5080335;28;20221;-70
2021/08/10 05:26:25;;;;;;;8.20;7.40;;;;;;;18.01;66.93;101169.19;5073999;28;20204;-69
2021/08/10 05:28:50;;;;;;;8.97;6.67;;;;;;;18.24;66.45;101162.66;5078707;28;20168;-69
2021/08/10 05:31:16;;;;;;;11.17;6.80;;;;;;;18.00;66.85;101167.44;5078539;28;20911;-69
2021/08/10 05:33:41;;;;;;;8.50;7.13;;;;;;;17.66;67.77;101173.13;5096337;28;20477;-68
2021/08/10 05:36:06;;;;;;;9.80;6.30;;;;;;;17.25;68.62;101170.09;5100125;28;20183;-70
2021/08/10 05:38:32;;;;;;;7.90;7.00;;;;;;;17.09;70.26;101172.03;5100017;28;20168;-68
2021/08/10 05:40:58;;;;;;;8.43;6.23;;;;;;;17.48;69.08;101167.19;5100065;28;20594;-67
2021/08/10 05:43:23;;;;;;;10.97;6.93;;;;;;;17.47;69.20;101173.34;5063024;28;20177;-66
2021/08/10 05:45:48;;;;;;;8.80;6.80;;;;;;;17.20;69.91;101163.13;5080561;28;20190;-67
2021/08/10 05:48:13;;;;;;;7.17;6.30;;;;;;;17.35;70.05;101165.59;5059936;28;20228;-66
2021/08/10 05:50:39;;;;;;;7.80;6.60;;;;;;;17.33;70.14;101162.09;5072006;28;20236;-66
2021/08/10 05:53:04;;;;;;;7.13;5.90;;;;;;;17.27;69.53;101168.31;5070374;28;20256;-67
2021/08/10 05:55:30;;;;;;;8.47;6.37;;;;;;;17.34;69.35;101161.22;5063143;28;20173;-67
2021/08/10 05:57:55;;;;;;;7.60;6.13;;;;;;;17.47;68.95;101154.91;5077808;28;20168;-66
2021/08/10 06:00:20;;;;;;;7.50;6.17;;;;;;;17.44;69.72;101152.31;5063192;28;20570;-65
2021/08/10 06:02:46;;;;;;;10.63;6.80;;;;;;;17.50;69.17;101149.56;5059868;28;20173;-66
2021/08/10 06:05:11;;;;;;;6.47;5.70;;;;;;;17.77;68.62;101144.84;5064436;28;20186;-66
2021/08/10 06:07:36;;;;;;;6.37;5.80;;;;;;;17.66;69.04;101133.59;5066574;28;20193;-66
2021/08/10 06:10:02;;;;;;;7.80;6.40;;;;;;;17.57;69.38;101142.47;5059523;28;20189;-66
2021/08/10 06:12:28;;;;;;;7.47;6.77;;;;;;;17.65;69.29;101139.75;5061207;28;20220;-66
2021/08/10 06:14:53;;;;;;;6.80;6.07;;;;;;;17.51;69.21;101140.78;5068584;28;20427;-66
2021/08/10 06:17:18;;;;;;;7.90;5.73;;;;;;;17.33;69.58;101136.63;5060637;28;20569;-67
2021/08/10 06:19:44;;;;;;;8.87;6.70;;;;;;;17.15;70.94;101129.78;5064807;28;20531;-65
2021/08/10 06:22:09;;;;;;;8.83;6.90;;;;;;;17.49;69.45;101133.78;5072211;28;20492;-66
2021/08/10 06:24:36;;;;;;;6.77;6.07;;;;;;;17.84;68.65;101132.44;5061536;28;20290;-66
2021/08/10 06:27:01;;;;;;;7.53;6.30;;;;;;;17.82;69.26;101143.03;5060103;28;20245;-66
2021/08/10 06:29:26;;;;;;;6.73;6.13;;;;;;;17.82;68.66;101143.03;5077843;28;20531;-65
2021/08/10 06:31:51;;;;;;;7.00;6.17;;;;;;;18.11;67.53;101128.56;5079620;28;20212;-66
2021/08/10 06:34:17;;;;;;;8.87;6.00;;;;;;;17.94;67.59;101128.81;5062721;28;20235;-65
2021/08/10 06:36:43;;;;;;;7.27;6.00;;;;;;;17.95;68.13;101129.69;5060877;28;20654;-66
2021/08/10 06:39:09;;;;;;;7.23;6.53;;;;;;;17.89;68.51;101127.09;5066276;28;20224;-66
2021/08/10 06:41:34;;;;;;;7.77;6.97;;;;;;;17.80;68.53;101134.25;5060436;28;20412;-67
2021/08/10 06:43:59;;;;;;;7.20;6.50;;;;;;;18.07;67.62;101136.56;5059176;28;20169;-65
2021/08/10 06:46:26;;;;;;;8.87;6.60;;;;;;;18.16;67.55;101139.91;5059234;28;20263;-65
2021/08/10 06:48:51;;;;;;;8.80;6.23;;;;;;;18.31;67.18;101140.56;5059564;28;20467;-64
2021/08/10 06:51:16;;;;;;;8.10;6.60;;;;;;;18.17;67.16;101149.56;5059184;28;20467;-67
2021/08/10 06:53:42;;;;;;;7.57;6.83;;;;;;;17.81;68.63;101146.53;5057889;28;20265;-68
2021/08/10 06:56:07;;;;;;;9.10;6.50;;;;;;;18.06;67.64;101146.22;5068879;28;20172;-68
2021/08/10 06:58:32;;;;;;;7.13;6.43;;;;;;;18.24;67.64;101149.47;5077739;28;20192;-68
2021/08/10 07:00:58;;;;;;;8.00;6.63;;;;;;;18.44;67.32;101151.78;5071194;28;20185;-69
2021/08/10 07:03:23;;;;;;;7.43;6.73;;;;;;;18.46;66.83;101150.88;5064607;28;20223;-70
2021/08/10 07:05:48;;;;;;;9.17;6.87;;;;;;;18.03;67.30;101146.25;5080502;28;20238;-72
2021/08/10 07:08:15;;;;;;;10.50;6.93;;;;;;;18.31;67.15;101140.56;5076372;28;20173;-69
2021/08/10 07:10:40;;;;;;;7.53;6.47;;;;;;;18.88;65.75;101141.38;5068828;28;20472;-71
2021/08/10 07:13:05;;;;;;;10.63;6.63;;;;;;;18.66;65.63;101149.69;5068534;28;20419;-69
2021/08/10 07:15:31;;;;;;;9.90;7.13;;;;;;;18.59;66.88;101155.94;5077666;28;20180;-69
2021/08/10 07:17:56;;;;;;;7.90;6.90;;;;;;;18.69;65.54;101149.63;5077957;28;20217;-70
2021/08/10 07:20:21;;;;;;;8.63;7.03;;;;;;;18.62;65.70;101150.63;5065757;28;20449;-70
2021/08/10 07:22:47;;;;;;;7.43;6.40;;;;;;;18.52;66.30;101153.41;5094440;28;20242;-69
2021/08/10 07:25:12;;;;;;;7.20;6.60;;;;;;;18.87;65.00;101161.59;5098678;28;20433;-69
2021/08/10 07:27:37;;;;;;;8.47;6.80;;;;;;;19.41;63.79;101157.97;5098424;28;20176;-67
2021/08/10 07:30:03;;;;;;;9.17;6.80;;;;;;;19.21;64.53;101154.84;5088567;28;20279;-69
2021/08/10 07:32:28;;;;;;;7.07;6.37;;;;;;;19.05;65.46;101165.75;5069348;28;20177;-69
2021/08/10 07:34:53;;;;;;;8.20;6.70;;;;;;;19.14;64.46;101162.03;5058486;28;20189;-68
2021/08/10 07:37:19;;;;;;;8.57;6.70;;;;;;;19.38;64.34;101158.03;5058054;28;20440;-69
2021/08/10 07:39:44;;;;;;;8.50;7.13;;;;;;;19.57;63.78;101165.59;5092849;28;20576;-69
2021/08/10 07:42:09;;;;;;;6.90;6.20;;;;;;;19.14;64.37;101173.47;5098166;28;20258;-68
2021/08/10 07:44:35;;;;;;;6.83;6.20;;;;;;;18.98;65.16;101172.00;5095393;28;20241;-72
2021/08/10 07:47:03;;;;;;;6.70;6.07;;;;;;;19.21;64.43;101170.72;5075191;28;20546;-68
2021/08/10 07:49:29;;;;;;;6.70;5.87;;;;;;;18.86;65.61;101165.13;5063639;28;20209;-69
2021/08/10 07:51:54;;;;;;;7.77;6.83;;;;;;;18.44;66.95;101170.28;5057940;28;20492;-70
2021/08/10 07:54:19;;;;;;;7.67;6.43;;;;;;;19.13;65.07;101163.81;5058125;28;20169;-69
2021/08/10 07:56:45;;;;;;;9.10;7.00;;;;;;;19.62;63.50;101161.06;5057787;28;20170;-68
2021/08/10 07:59:10;;;;;;;9.80;6.97;;;;;;;20.84;60.09;101147.66;5057672;28;20181;-68
2021/08/10 08:01:35;;;;;;;8.77;5.47;;;;;;;20.44;60.54;101162.72;5061474;28;20219;-68
2021/08/10 08:04:00;;;;;;;8.93;5.90;;;;;;;21.47;57.94;101145.88;5081498;28;20676;-67
2021/08/10 08:06:26;;;;;;;7.63;5.70;;;;;;;21.38;57.67;101146.16;5077819;28;20180;-69
2021/08/10 08:08:51;;;;;;;6.27;5.67;;;;;;;22.52;54.56;101139.97;5081733;28;20172;-67
2021/08/10 08:11:16;;;;;;;7.30;5.73;;;;;;;22.75;53.44;101140.13;5081178;28;20516;-68
2021/08/10 08:13:42;;;;;;;9.40;5.97;;;;;;;22.14;54.53;101127.94;5096606;28;20261;-68
2021/08/10 08:16:07;;;;;;;9.20;5.50;;;;;;;21.61;56.09;101139.31;5082075;28;20539;-67
2021/08/10 08:18:32;;;;;;;10.07;7.00;;;;;;;20.80;58.92;101149.50;5064806;28;20197;-69
2021/08/10 08:20:58;;;;;;;15.67;6.60;;;;;;;21.16;58.27;101135.28;5073107;28;20176;-68
2021/08/10 08:23:25;;;;;;;7.17;6.03;;;;;;;20.28;60.57;101134.91;5077081;28;20236;-67
2021/08/10 08:25:51;;;;;;;7.43;6.37;;;;;;;20.32;60.67;101142.75;5081249;28;20215;-67
2021/08/10 08:28:16;;;;;;;6.73;6.13;;;;;;;21.00;59.09;101137.50;5081417;28;20407;-68
2021/08/10 08:30:42;;;;;;;7.37;6.00;;;;;;;21.72;56.49;101129.25;5063838;28;20294;-67
2021/08/10 08:33:11;;;;;;;7.57;6.30;;;;;;;21.74;56.66;101145.13;5061696;28;20185;-69
2021/08/10 08:35:38;;;;;;;7.77;6.20;;;;;;;22.48;54.39;101135.69;5069883;28;20594;-69
2021/08/10 08:38:03;;;;;;;7.73;6.10;;;;;;;23.47;51.75;101140.16;5080127;28;20506;-68
2021/08/10 08:40:29;;;;;;;6.37;5.77;;;;;;;23.34;51.53;101139.78;5080086;28;20809;-68
2021/08/10 08:42:54;;;;;;;6.77;5.87;;;;;;;24.51;49.29;101131.59;5081372;28;20580;-69
2021/08/10 08:45:20;;;;;;;5.97;5.37;;;;;;;24.16;50.18;101125.94;5080149;28;20592;-68
2021/08/10 08:47:50;;;;;;;7.10;5.20;;;;;;;22.98;52.36;101145.47;5080067;28;20247;-68
2021/08/10 08:50:17;;;;;;;7.20;5.80;;;;;;;23.44;51.40;101137.63;5061195;28;20269;-68
2021/08/10 08:52:45;;;;;;;6.60;5.67;;;;;;;23.08;51.67;101140.69;5060886;28;20408;-68
2021/08/10 08:55:10;;;;;;;6.33;5.57;;;;;;;23.38;51.27;101137.84;5060199;28;20455;-69
2021/08/10 08:57:36;;;;;;;5.50;5.00;;;;;;;22.80;53.28;101133.72;5061325;28;20488;-67
2021/08/10 09:00:01;;;;;;;9.23;5.87;;;;;;;22.39;54.26;101137.78;5060694;28;20469;-67
2021/08/10 09:02:27;;;;;;;6.30;4.50;;;;;;;22.55;53.56;101131.03;5060850;28;20185;-68
2021/08/10 09:04:52;;;;;;;8.90;5.87;;;;;;;22.31;54.62;101124.72;5060934;28;20586;-67
2021/08/10 09:07:18;;;;;;;5.90;4.97;;;;;;;22.08;55.47;101125.47;5060606;28;20205;-67
2021/08/10 09:09:46;;;;;;;8.10;5.63;;;;;;;21.82;56.27;101122.72;5060706;28;20193;-67
2021/08/10 09:12:13;;;;;;;5.60;5.07;;;;;;;21.60;56.57;101121.69;5066081;28;20517;-67
2021/08/10 09:14:50;;;;;;;7.30;5.10;;;;;;;21.70;55.58;101116.03;5073893;28;20492;-67
2021/08/10 09:17:18;;;;;;;6.17;4.73;;;;;;;21.29;56.73;101117.25;5060755;28;22067;-66
2021/08/10 09:19:43;;;;;;;6.87;5.10;;;;;;;21.60;57.06;101119.03;5068383;28;20807;-67
2021/08/10 09:22:21;;;;;;;6.63;5.43;;;;;;;22.14;55.35;101114.69;5060489;28;20412;-67
2021/08/10 09:24:59;;;;;;;8.10;5.60;;;;;;;22.26;53.94;101111.59;5060369;28;20271;-67
2021/08/10 09:27:42;;;;;;;6.10;5.50;;;;;;;24.28;50.32;101095.28;5059526;28;20526;-68
2021/08/10 09:30:10;;;;;;;7.03;5.30;;;;;;;24.49;48.06;101089.94;5060043;28;20463;-68
2021/08/10 09:32:57;;;;;;;5.83;5.27;;;;;;;24.36;48.33;101089.63;5079345;28;20403;-67
2021/08/10 09:35:24;;;;;;;6.47;5.10;;;;;;;23.51;50.05;101099.19;5061154;28;20481;-67
2021/08/10 09:38:04;;;;;;;5.90;5.03;;;;;;;23.84;48.67;101092.59;5060202;28;20459;-68
2021/08/10 09:40:37;;;;;;;6.07;5.00;;;;;;;23.35;50.75;101095.41;5060111;28;20443;-68
2021/08/10 09:43:26;;;;;;;7.43;4.83;;;;;;;22.70;52.23;101088.00;5059766;28;20408;-67
2021/08/10 09:46:18;;;;;;;6.47;5.30;;;;;;;22.37;53.35;101090.88;5059798;28;20408;-66
2021/08/10 09:48:50;;;;;;;6.80;5.13;;;;;;;23.05;50.98;101088.47;5073105;28;20442;-68
2021/08/10 09:51:21;;;;;;;5.83;5.10;;;;;;;23.31;50.22;101091.13;5080022;28;20749;-68
2021/08/10 09:54:14;;;;;;;6.37;4.50;;;;;;;23.45;50.83;101094.13;5079784;28;20407;-68
2021/08/10 09:56:51;;;;;;;5.50;5.00;;;;;;;24.05;48.23;101094.44;5079540;28;20427;-67
2021/08/10 09:59:24;;;;;;;5.57;5.07;;;;;;;23.21;50.52;101088.81;5079634;28;20502;-68
2021/08/10 10:01:53;;;;;;;10.50;5.40;;;;;;;23.41;49.64;101089.84;5079550;28;20801;-68
2021/08/10 10:04:27;;;;;;;6.60;5.73;;;;;;;23.30;48.64;101092.94;5069183;28;20428;-68
2021/08/10 10:06:57;;;;;;;5.90;5.40;;;;;;;23.74;48.05;101097.44;5079500;28;20419;-68
2021/08/10 10:09:24;;;;;;;6.70;6.00;;;;;;;23.03;50.07;101093.00;5078750;28;20461;-68
2021/08/10 10:11:52;;;;;;;8.77;6.03;;;;;;;22.63;51.52;101101.53;5079391;28;20458;-68
2021/08/10 10:14:19;;;;;;;7.50;6.87;;;;;;;22.01;52.46;101098.25;5071068;28;20430;-68
2021/08/10 10:16:51;;;;;;;7.80;6.47;;;;;;;24.19;47.93;101090.31;5059209;28;20408;-67
2021/08/10 10:19:18;;;;;;;8.53;6.63;;;;;;;24.76;46.26;101077.25;5062177;28;20698;-68
2021/08/10 10:21:45;;;;;;;8.33;6.10;;;;;;;25.79;43.17;101081.41;5073693;28;20829;-67
2021/08/10 10:24:11;;;;;;;7.53;5.60;;;;;;;26.73;40.51;101069.56;5058750;28;20531;-69
2021/08/10 10:26:45;;;;;;;5.57;5.17;;;;;;;27.21;39.81;101064.31;5059293;28;20416;-68
2021/08/10 10:29:12;;;;;;;7.50;6.40;;;;;;;26.69;39.96;101069.78;5059305;28;20469;-68
2021/08/10 10:31:38;;;;;;;5.80;5.20;;;;;;;26.94;40.19;101065.81;5059051;28;20521;-68
2021/08/10 10:34:05;;;;;;;6.17;5.57;;;;;;;27.41;38.61;101064.19;5059041;28;20435;-68
2021/08/10 10:36:30;;;;;;;6.90;6.30;;;;;;;27.37;38.08;101050.97;5063311;28;20425;-68
2021/08/10 10:38:58;;;;;;;7.83;5.73;;;;;;;25.37;42.46;101065.59;5071849;28;20428;-69
2021/08/10 10:41:25;;;;;;;7.23;6.50;;;;;;;24.75;43.50;101043.53;5058164;28;20265;-71
2021/08/10 10:43:54;;;;;;;6.60;6.10;;;;;;;24.09;45.34;101054.38;5067200;28;20851;-66
2021/08/10 10:46:34;;;;;;;6.77;6.27;;;;;;;23.88;46.29;101057.84;5078740;28;20489;-67
2021/08/10 10:49:01;;;;;;;7.23;6.27;;;;;;;24.01;46.04;101062.66;5078802;28;20426;-67
2021/08/10 10:51:35;;;;;;;7.50;6.07;;;;;;;24.44;44.90;101060.00;5078613;28;20491;-67
2021/08/10 10:54:23;;;;;;;6.17;5.57;;;;;;;25.85;41.85;101055.28;5068566;28;20514;-68
2021/08/10 10:56:51;;;;;;;6.20;5.70;;;;;;;26.48;41.04;101053.94;5059188;28;20515;-66
2021/08/10 10:59:36;;;;;;;6.20;5.60;;;;;;;25.43;43.54;101053.75;5074266;28;20409;-67
2021/08/10 11:02:18;;;;;;;6.60;5.90;;;;;;;25.00;44.11;101061.06;5076082;28;20436;-67
2021/08/10 11:05:05;;;;;;;6.40;5.90;;;;;;;23.92;46.30;101061.25;5062865;28;20431;-67
2021/08/10 11:07:40;;;;;;;6.10;5.50;;;;;;;23.16;47.18;101069.50;5058549;28;20404;-69
2021/08/10 11:10:25;;;;;;;9.00;5.73;;;;;;;22.90;48.32;101078.41;5058345;28;20431;-68
2021/08/10 11:12:50;;;;;;;6.50;6.00;;;;;;;23.24;48.45;101076.34;5062116;28;20550;-70
2021/08/10 11:15:20;;;;;;;7.50;6.23;;;;;;;23.08;48.35;101074.19;5075997;28;20513;-69
2021/08/10 11:18:07;;;;;;;8.37;6.03;;;;;;;22.60;50.81;101083.06;5078167;28;20242;-69
2021/08/10 11:20:34;;;;;;;6.80;6.20;;;;;;;22.36;52.20;101080.31;5078318;28;20537;-69
2021/08/10 11:23:28;;;;;;;7.50;6.73;;;;;;;22.80;50.71;101077.00;5077789;28;20513;-69
2021/08/10 11:26:14;;;;;;;7.07;6.37;;;;;;;23.06;50.41;101081.38;5068157;28;20428;-68
2021/08/10 11:28:46;;;;;;;7.23;6.53;;;;;;;22.67;51.98;101079.25;5058052;28;20746;-69